Terminal Aerodrome Forecast
Issued by NWS

Home | Current Version | Previous Version | Text Only | Print | Product List | Glossary Off
Versions: 1 2 3 4 5 6 7 8 9 10 11 12 13

000
FTUS45 KGGW 251121
TAFGDV
TAF
KGDV 251121Z 2512/2612 30017KT P6SM SCT200
     FM260000 30010KT P6SM FEW200
     FM260300 29005KT P6SM FEW200=

USA.gov is the U.S. government's official web portal to all federal, state and local government web resources and services.